Time;durP1;ratioP1;P1;durP2;ratioP2;P2;SDS_P1;SDS_P2;PMS_P1;PMS_P2;Temp;Humidity;BMP_temperature;BMP_pressure;BME280_temperature;BME280_humidity;BME280_pressure;Samples;Min_cycle;Max_cycle;Signal;HPM_P1;HPM_P2
2024/02/16 00:02:12;;;;;;;7.30;2.80;;;;;;;-2.68;78.61;96336.84;106791;1276;22522;-77
2024/02/16 00:04:40;;;;;;;6.10;2.70;;;;;;;-2.70;78.40;96336.05;106835;1276;22660;-78
2024/02/16 00:07:08;;;;;;;3.10;2.30;;;;;;;-2.71;78.36;96333.60;106658;1276;22518;-77
2024/02/16 00:09:36;;;;;;;3.40;2.50;;;;;;;-2.73;78.36;96332.83;106618;1276;22540;-77
2024/02/16 00:12:05;;;;;;;4.10;2.60;;;;;;;-2.73;78.39;96331.95;106644;1276;22526;-77
2024/02/16 00:14:33;;;;;;;2.80;2.30;;;;;;;-2.72;78.36;96330.45;106580;1276;22914;-77
2024/02/16 00:17:02;;;;;;;5.10;2.70;;;;;;;-2.74;78.16;96331.91;106639;1276;22640;-78
2024/02/16 00:19:30;;;;;;;4.80;2.30;;;;;;;-2.73;78.18;96328.50;106600;1276;24230;-77
2024/02/16 00:21:59;;;;;;;3.90;2.50;;;;;;;-2.73;78.10;96325.23;106692;1275;25442;-77
2024/02/16 00:24:28;;;;;;;6.50;3.80;;;;;;;-2.73;78.02;96326.77;106647;1276;23894;-78
2024/02/16 00:26:56;;;;;;;3.70;2.00;;;;;;;-2.75;78.07;96325.66;106604;1276;22760;-78
2024/02/16 00:29:25;;;;;;;3.30;1.90;;;;;;;-2.77;78.04;96322.81;106668;1276;22546;-77
2024/02/16 00:31:53;;;;;;;2.60;1.70;;;;;;;-2.80;77.83;96323.87;106656;1276;22537;-78
2024/02/16 00:34:22;;;;;;;3.60;1.80;;;;;;;-2.81;78.22;96322.98;106696;1276;24830;-78
2024/02/16 00:36:50;;;;;;;4.30;2.00;;;;;;;-2.83;78.04;96324.83;106613;1276;24407;-77
2024/02/16 00:39:18;;;;;;;4.30;1.40;;;;;;;-2.84;78.06;96328.39;106594;1276;22530;-78
2024/02/16 00:41:47;;;;;;;4.30;2.20;;;;;;;-2.85;78.85;96328.70;106620;1276;22547;-78
2024/02/16 00:44:15;;;;;;;3.70;2.20;;;;;;;-2.89;78.36;96327.45;106687;1265;22523;-78
2024/02/16 00:46:44;;;;;;;3.90;1.90;;;;;;;-2.91;78.73;96324.95;106610;1276;25498;-77
2024/02/16 00:49:13;;;;;;;5.90;2.00;;;;;;;-2.91;79.28;96325.63;106631;1276;25379;-77
2024/02/16 00:51:41;;;;;;;3.00;1.50;;;;;;;-2.92;79.08;96328.02;106617;1276;22563;-77
2024/02/16 00:54:09;;;;;;;3.10;1.50;;;;;;;-2.88;79.02;96323.03;106641;1276;25265;-78
2024/02/16 00:56:38;;;;;;;1.60;1.10;;;;;;;-2.83;78.88;96325.12;106647;1276;24250;-78
2024/02/16 00:59:09;;;;;;;3.40;2.30;;;;;;;-2.79;79.07;96318.27;106713;1276;24256;-77
2024/02/16 01:01:38;;;;;;;1.70;1.10;;;;;;;-2.81;78.70;96319.90;106652;1276;22514;-78
2024/02/16 01:04:06;;;;;;;6.40;2.10;;;;;;;-2.81;79.13;96317.83;106617;1276;24344;-77
2024/02/16 01:06:35;;;;;;;2.50;1.00;;;;;;;-2.86;79.24;96311.58;106620;1276;22527;-78
2024/02/16 01:09:03;;;;;;;2.20;0.90;;;;;;;-2.87;79.46;96316.21;106619;1276;26519;-77
2024/02/16 01:11:32;;;;;;;1.60;0.80;;;;;;;-2.77;79.73;96314.71;106610;1276;25366;-78
2024/02/16 01:14:00;;;;;;;2.10;0.90;;;;;;;-2.68;79.70;96313.72;106634;1276;23020;-78
2024/02/16 01:16:29;;;;;;;2.00;1.10;;;;;;;-2.65;79.06;96310.94;106616;1276;25243;-77
2024/02/16 01:18:57;;;;;;;1.80;1.40;;;;;;;-2.63;79.42;96311.02;106659;1276;25173;-77
2024/02/16 01:21:26;;;;;;;1.90;1.10;;;;;;;-2.57;79.13;96306.45;106667;1276;25310;-77
2024/02/16 01:23:55;;;;;;;1.60;1.00;;;;;;;-2.55;79.26;96303.80;106590;1276;24218;-77
2024/02/16 01:26:23;;;;;;;3.30;1.30;;;;;;;-2.55;78.80;96302.59;106611;1276;22528;-78
2024/02/16 01:28:51;;;;;;;3.60;2.10;;;;;;;-2.53;79.08;96304.76;106655;1276;22519;-78
2024/02/16 01:31:19;;;;;;;2.10;1.20;;;;;;;-2.50;79.07;96299.89;106650;1276;22521;-78
2024/02/16 01:33:48;;;;;;;2.00;1.00;;;;;;;-2.44;78.79;96300.34;106653;1276;24400;-77
2024/02/16 01:36:16;;;;;;;2.80;1.20;;;;;;;-2.38;78.80;96294.18;106668;1276;23135;-78
2024/02/16 01:38:45;;;;;;;1.70;1.20;;;;;;;-2.41;78.37;96295.62;106673;1276;23892;-78
2024/02/16 01:41:15;;;;;;;1.30;0.90;;;;;;;-2.47;77.99;96292.27;106809;1276;22528;-78
2024/02/16 01:43:43;;;;;;;1.80;1.40;;;;;;;-2.52;77.89;96292.58;106789;1276;24943;-78
2024/02/16 01:46:12;;;;;;;3.30;1.80;;;;;;;-2.52;77.86;96286.54;106624;1276;22598;-78
2024/02/16 01:48:40;;;;;;;2.40;1.40;;;;;;;-2.58;77.38;96287.30;106676;1276;22646;-77
2024/02/16 01:51:09;;;;;;;2.80;1.30;;;;;;;-2.65;77.12;96287.55;106653;1276;26538;-78
2024/02/16 01:53:39;;;;;;;1.30;0.90;;;;;;;-2.71;77.09;96284.02;106745;1276;25939;-78
2024/02/16 01:56:08;;;;;;;2.60;1.10;;;;;;;-2.77;76.91;96285.46;106764;1276;25306;-78
2024/02/16 01:58:36;;;;;;;2.20;1.00;;;;;;;-2.86;76.84;96282.15;106652;1276;22539;-77
2024/02/16 02:01:04;;;;;;;1.70;0.90;;;;;;;-2.92;76.84;96282.07;106725;1276;22533;-78
2024/02/16 02:03:34;;;;;;;4.70;1.90;;;;;;;-2.96;77.24;96283.57;106697;1276;22546;-78
2024/02/16 02:06:03;;;;;;;1.10;0.80;;;;;;;-3.08;76.98;96278.61;106591;1276;22513;-77
2024/02/16 02:08:32;;;;;;;1.60;0.90;;;;;;;-3.11;77.18;96274.83;106656;1276;24352;-78
2024/02/16 02:11:02;;;;;;;1.50;1.00;;;;;;;-3.15;77.19;96273.79;107020;1266;22656;-77
2024/02/16 02:13:30;;;;;;;1.10;0.70;;;;;;;-3.17;77.17;96274.89;106987;1265;25291;-78
2024/02/16 02:16:00;;;;;;;1.90;1.10;;;;;;;-3.20;77.18;96275.47;106606;1276;23273;-78
2024/02/16 02:18:28;;;;;;;2.10;0.90;;;;;;;-3.23;77.04;96275.02;106707;1276;22534;-78
2024/02/16 02:20:57;;;;;;;1.50;1.00;;;;;;;-3.24;77.08;96279.76;106628;1276;24313;-78
2024/02/16 02:23:25;;;;;;;1.50;1.00;;;;;;;-3.25;77.20;96283.84;106685;1276;22514;-78
2024/02/16 02:25:54;;;;;;;1.50;0.80;;;;;;;-3.33;77.76;96282.99;106652;1276;22524;-78
2024/02/16 02:28:23;;;;;;;1.50;0.90;;;;;;;-3.41;77.48;96281.05;106623;1276;22560;-78
2024/02/16 02:30:53;;;;;;;4.10;1.00;;;;;;;-3.45;77.42;96285.34;106681;1276;22516;-78
2024/02/16 02:33:21;;;;;;;0.70;0.50;;;;;;;-3.46;77.40;96279.96;106582;1276;25291;-78
2024/02/16 02:35:51;;;;;;;1.20;0.80;;;;;;;-3.44;77.49;96278.14;106642;1276;22649;-78
2024/02/16 02:38:19;;;;;;;1.10;0.70;;;;;;;-3.47;77.95;96280.77;106672;1276;25379;-78
2024/02/16 02:40:47;;;;;;;2.10;1.10;;;;;;;-3.52;78.74;96278.50;106621;1276;22517;-78
2024/02/16 02:43:15;;;;;;;1.10;0.90;;;;;;;-3.55;78.16;96276.14;106661;1276;25288;-78
2024/02/16 02:45:44;;;;;;;1.90;0.90;;;;;;;-3.55;78.12;96278.73;106614;1276;22652;-78
2024/02/16 02:48:12;;;;;;;1.00;0.90;;;;;;;-3.54;78.06;96282.70;106629;1276;25360;-78
2024/02/16 02:50:40;;;;;;;1.40;0.80;;;;;;;-3.55;78.12;96280.92;106629;1276;24282;-78
2024/02/16 02:53:09;;;;;;;1.60;0.70;;;;;;;-3.56;77.87;96279.48;106667;1276;22514;-78
2024/02/16 02:55:37;;;;;;;1.30;0.80;;;;;;;-3.56;78.10;96286.56;106585;1276;25341;-78
2024/02/16 02:58:05;;;;;;;1.90;0.80;;;;;;;-3.59;77.95;96286.91;106625;1254;22650;-78
2024/02/16 03:00:33;;;;;;;1.20;0.70;;;;;;;-3.61;77.92;96288.25;106679;1276;22521;-78
2024/02/16 03:03:01;;;;;;;1.10;0.80;;;;;;;-3.60;77.82;96291.02;106657;1276;25366;-78
2024/02/16 03:05:30;;;;;;;1.40;0.90;;;;;;;-3.59;77.78;96292.59;106673;1276;24387;-78
2024/02/16 03:08:01;;;;;;;2.10;0.60;;;;;;;-3.58;77.91;96288.36;106627;1276;22795;-78
2024/02/16 03:10:34;;;;;;;1.60;0.60;;;;;;;-3.58;78.03;96286.09;106653;1276;24345;-78
2024/02/16 03:13:03;;;;;;;0.80;0.60;;;;;;;-3.61;77.85;96287.67;106728;1276;22526;-78
2024/02/16 03:15:31;;;;;;;4.90;2.80;;;;;;;-3.63;77.93;96289.30;106538;1276;22655;-78
2024/02/16 03:18:00;;;;;;;2.40;1.50;;;;;;;-3.63;78.08;96292.05;106629;1276;24474;-78
2024/02/16 03:20:30;;;;;;;1.10;0.70;;;;;;;-3.67;78.19;96291.17;106705;1276;24250;-78
2024/02/16 03:22:58;;;;;;;1.00;0.70;;;;;;;-3.70;78.71;96295.53;106608;1276;22529;-78
2024/02/16 03:25:26;;;;;;;1.00;0.60;;;;;;;-3.73;78.44;96295.89;106718;1276;22510;-78
2024/02/16 03:27:55;;;;;;;0.60;0.60;;;;;;;-3.75;78.23;96295.15;106837;1276;24337;-78
2024/02/16 03:30:23;;;;;;;1.30;0.60;;;;;;;-3.75;78.03;96293.91;106595;1276;25360;-78
2024/02/16 03:32:52;;;;;;;0.90;0.50;;;;;;;-3.77;78.28;96294.02;106653;1276;24274;-78
2024/02/16 03:35:20;;;;;;;1.20;0.60;;;;;;;-3.78;78.20;96290.17;106704;1265;25351;-78
2024/02/16 03:37:49;;;;;;;1.20;0.60;;;;;;;-3.79;79.01;96295.96;106677;1276;22540;-78
2024/02/16 03:40:18;;;;;;;1.00;0.70;;;;;;;-3.80;78.88;96296.08;106651;1276;22773;-78
2024/02/16 03:42:46;;;;;;;1.10;0.60;;;;;;;-3.81;78.60;96298.12;106755;1276;23414;-78
2024/02/16 03:45:14;;;;;;;1.20;0.70;;;;;;;-3.83;78.30;96297.81;106662;1276;25425;-78
2024/02/16 03:47:43;;;;;;;1.10;0.70;;;;;;;-3.79;78.50;96303.19;106630;1276;24448;-78
2024/02/16 03:50:11;;;;;;;0.70;0.60;;;;;;;-3.76;78.90;96302.46;106939;1276;23922;-78
2024/02/16 03:52:39;;;;;;;2.20;0.70;;;;;;;-3.72;78.67;96300.41;106691;1276;22587;-78
2024/02/16 03:55:08;;;;;;;0.80;0.40;;;;;;;-3.71;78.27;96303.39;106747;1276;22636;-78
2024/02/16 03:57:37;;;;;;;1.00;0.50;;;;;;;-3.68;78.47;96304.05;106614;1276;24368;-78
2024/02/16 04:00:07;;;;;;;12.00;4.50;;;;;;;-3.62;78.67;96301.56;106638;1276;25494;-78
2024/02/16 04:02:41;;;;;;;0.40;0.40;;;;;;;-3.61;78.79;96303.18;106610;1276;22521;-78
2024/02/16 04:05:10;;;;;;;1.50;0.70;;;;;;;-3.56;79.08;96291.40;106675;1276;24295;-78
2024/02/16 04:07:38;;;;;;;0.70;0.50;;;;;;;-3.48;79.07;96293.96;106684;1276;24254;-78
2024/02/16 04:10:07;;;;;;;1.80;0.40;;;;;;;-3.44;78.75;96296.07;106642;1275;22622;-78
2024/02/16 04:12:36;;;;;;;1.70;0.50;;;;;;;-3.41;78.88;96294.50;106625;1276;24390;-78
2024/02/16 04:15:05;;;;;;;1.80;0.60;;;;;;;-3.35;79.01;96298.72;106601;1276;22525;-77
2024/02/16 04:17:33;;;;;;;0.80;0.60;;;;;;;-3.29;78.95;96300.23;106662;1276;22934;-78
2024/02/16 04:20:01;;;;;;;1.10;0.60;;;;;;;-3.29;78.38;96300.39;106659;1276;22517;-77
2024/02/16 04:22:30;;;;;;;2.00;0.60;;;;;;;-3.25;78.55;96306.55;106649;1276;25531;-76
2024/02/16 04:24:59;;;;;;;1.40;0.40;;;;;;;-3.20;78.57;96304.89;106680;1275;25706;-77
2024/02/16 04:27:27;;;;;;;1.70;0.60;;;;;;;-3.23;78.29;96304.73;106599;1276;24409;-77
2024/02/16 04:29:55;;;;;;;1.80;0.90;;;;;;;-3.21;78.49;96302.46;106650;1276;22575;-77
2024/02/16 04:32:27;;;;;;;2.10;1.10;;;;;;;-3.23;77.53;96299.26;106583;1276;22612;-76
2024/02/16 04:34:58;;;;;;;1.90;0.70;;;;;;;-3.31;77.73;96299.77;106618;1276;22647;-75
2024/02/16 04:37:27;;;;;;;1.10;0.50;;;;;;;-3.32;77.83;96296.11;106642;1276;22561;-76
2024/02/16 04:39:55;;;;;;;3.00;1.30;;;;;;;-3.34;77.69;96293.95;106596;1276;25304;-77
2024/02/16 04:42:23;;;;;;;1.10;0.60;;;;;;;-3.44;77.54;96296.92;106590;1276;22640;-78
2024/02/16 04:44:51;;;;;;;0.90;0.80;;;;;;;-3.49;77.89;96298.94;106726;1276;24506;-77
2024/02/16 04:47:20;;;;;;;1.00;0.90;;;;;;;-3.50;77.96;96298.02;106649;1276;25306;-77
2024/02/16 04:49:48;;;;;;;2.40;1.20;;;;;;;-3.54;77.60;96296.95;106619;1276;22549;-77
2024/02/16 04:52:16;;;;;;;1.80;1.30;;;;;;;-3.56;77.67;96305.46;106654;1276;24241;-77
2024/02/16 04:54:44;;;;;;;1.80;1.00;;;;;;;-3.58;77.42;96306.73;106676;1276;22652;-77
2024/02/16 04:57:12;;;;;;;0.80;0.70;;;;;;;-3.60;77.55;96312.52;106587;1276;23912;-77
2024/02/16 04:59:41;;;;;;;1.20;0.70;;;;;;;-3.61;77.44;96311.27;106705;1276;26691;-77
2024/02/16 05:02:10;;;;;;;1.30;0.70;;;;;;;-3.64;77.46;96316.81;106666;1276;22810;-77
2024/02/16 05:04:38;;;;;;;2.50;0.50;;;;;;;-3.71;77.33;96315.27;106707;1276;22643;-78
2024/02/16 05:07:07;;;;;;;1.80;1.00;;;;;;;-3.74;77.40;96320.61;106624;1264;24217;-78
2024/02/16 05:09:36;;;;;;;2.60;0.70;;;;;;;-3.75;77.21;96321.06;106734;1276;25494;-77
2024/02/16 05:12:05;;;;;;;0.70;0.50;;;;;;;-3.78;77.06;96320.76;106669;1276;22466;-78
2024/02/16 05:14:33;;;;;;;3.00;2.70;;;;;;;-3.79;77.12;96321.05;106634;1272;22519;-77
2024/02/16 05:17:01;;;;;;;1.20;0.70;;;;;;;-3.81;76.99;96317.69;106649;1276;22625;-78
2024/02/16 05:19:33;;;;;;;1.50;0.90;;;;;;;-3.86;76.86;96323.46;106691;1276;22524;-77
2024/02/16 05:22:02;;;;;;;4.90;2.40;;;;;;;-3.91;77.39;96322.23;106614;1276;22516;-77
2024/02/16 05:24:30;;;;;;;7.10;3.90;;;;;;;-3.98;77.40;96322.76;106672;1276;24228;-78
2024/02/16 05:26:59;;;;;;;2.60;1.30;;;;;;;-4.02;77.32;96326.32;106707;1266;24225;-77
2024/02/16 05:29:27;;;;;;;5.90;1.20;;;;;;;-4.03;77.66;96328.35;106636;1276;22527;-78
2024/02/16 05:31:55;;;;;;;0.80;0.60;;;;;;;-4.02;77.52;96333.52;106583;1276;25503;-78
2024/02/16 05:34:24;;;;;;;1.20;0.70;;;;;;;-4.03;77.25;96332.94;106653;1276;22582;-77
2024/02/16 05:36:53;;;;;;;2.50;1.00;;;;;;;-4.03;77.29;96337.09;106669;1276;22661;-78
2024/02/16 05:39:26;;;;;;;1.00;0.50;;;;;;;-4.04;77.15;96340.99;106588;1276;22760;-78
2024/02/16 05:41:55;;;;;;;1.00;0.70;;;;;;;-4.06;77.08;96341.42;106659;1276;24222;-77
2024/02/16 05:44:24;;;;;;;1.40;0.80;;;;;;;-4.05;77.15;96340.41;106620;1276;26618;-77
2024/02/16 05:46:52;;;;;;;11.20;5.10;;;;;;;-4.04;77.43;96347.86;106599;1276;22607;-77
2024/02/16 05:49:20;;;;;;;7.60;3.70;;;;;;;-4.08;77.26;96348.38;106615;1276;22519;-77
2024/02/16 05:54:36;;;;;;;1.40;0.70;;;;;;;-4.06;77.61;96347.77;106941;1276;24322;-76
2024/02/16 05:57:08;;;;;;;1.90;1.10;;;;;;;-4.05;77.61;96344.88;106624;1276;23923;-76
2024/02/16 05:59:37;;;;;;;1.50;1.00;;;;;;;-4.06;78.01;96349.16;106915;1276;22538;-79
2024/02/16 06:02:07;;;;;;;3.30;1.00;;;;;;;-4.03;78.02;96350.81;106954;1272;25382;-78
2024/02/16 06:04:35;;;;;;;0.90;0.60;;;;;;;-3.99;77.88;96350.51;107008;1276;23090;-79
2024/02/16 06:07:03;;;;;;;0.90;0.50;;;;;;;-3.94;77.93;96352.65;107092;1276;25366;-79
2024/02/16 06:09:37;;;;;;;1.00;0.50;;;;;;;-3.90;77.88;96351.48;106918;1276;25427;-80
2024/02/16 06:12:07;;;;;;;1.90;0.70;;;;;;;-3.83;77.84;96353.51;106843;1276;22999;-79
2024/02/16 06:14:36;;;;;;;1.20;0.50;;;;;;;-3.76;78.25;96359.88;106883;1276;22604;-78
2024/02/16 06:17:05;;;;;;;1.60;0.70;;;;;;;-3.75;78.12;96361.33;106850;1276;25704;-78
2024/02/16 06:19:33;;;;;;;1.40;0.80;;;;;;;-3.71;78.34;96363.76;106717;1276;24285;-78
2024/02/16 06:22:03;;;;;;;1.30;0.90;;;;;;;-3.65;79.06;96365.58;106780;1276;22628;-78
2024/02/16 06:24:31;;;;;;;2.30;0.90;;;;;;;-3.60;78.80;96367.38;107011;1269;22575;-77
2024/02/16 06:26:59;;;;;;;1.10;0.60;;;;;;;-3.54;79.30;96365.39;106912;1276;22673;-76
2024/02/16 06:29:28;;;;;;;2.60;1.50;;;;;;;-3.50;79.22;96368.37;106733;1276;22520;-76
2024/02/16 06:31:56;;;;;;;3.40;2.10;;;;;;;-3.43;79.16;96371.95;106647;1276;23891;-78
2024/02/16 06:34:25;;;;;;;1.90;1.20;;;;;;;-3.36;79.55;96371.77;106656;1276;22614;-77
2024/02/16 06:36:53;;;;;;;1.70;1.30;;;;;;;-3.30;79.68;96367.74;106700;1276;23890;-77
2024/02/16 06:39:21;;;;;;;2.40;1.60;;;;;;;-3.17;80.13;96364.73;106550;1276;25680;-78
2024/02/16 06:41:50;;;;;;;7.60;2.80;;;;;;;-3.00;80.28;96363.78;106579;1276;22543;-78
2024/02/16 06:44:18;;;;;;;13.60;5.50;;;;;;;-2.81;80.24;96365.85;106494;1276;24498;-77
2024/02/16 06:46:51;;;;;;;7.40;4.00;;;;;;;-2.61;80.28;96366.07;106603;1276;22531;-75
2024/02/16 06:49:20;;;;;;;6.50;2.60;;;;;;;-2.48;79.40;96362.86;106537;1276;24238;-78
2024/02/16 06:51:48;;;;;;;15.00;7.10;;;;;;;-2.36;79.36;96361.62;106595;1276;22590;-77
2024/02/16 06:54:16;;;;;;;30.40;14.70;;;;;;;-2.16;79.49;96361.10;106551;1276;22630;-77
2024/02/16 06:56:44;;;;;;;38.00;20.00;;;;;;;-1.93;79.49;96362.78;106557;1273;22534;-77
2024/02/16 06:59:13;;;;;;;44.00;22.30;;;;;;;-1.68;79.39;96357.25;106630;1265;22778;-78
2024/02/16 07:01:41;;;;;;;47.40;25.40;;;;;;;-1.45;77.34;96357.98;106836;1276;23042;-79
2024/02/16 07:04:10;;;;;;;21.80;11.30;;;;;;;-1.28;76.61;96354.66;107031;1276;22798;-78
2024/02/16 07:06:38;;;;;;;12.90;6.90;;;;;;;-1.26;76.27;96352.35;106673;1276;25389;-76
2024/02/16 07:09:07;;;;;;;17.20;7.40;;;;;;;-1.30;76.24;96354.80;106605;1276;22935;-77
2024/02/16 07:11:36;;;;;;;11.00;5.40;;;;;;;-1.31;76.44;96357.54;106723;1275;22523;-76
2024/02/16 07:14:08;;;;;;;12.40;7.00;;;;;;;-1.30;76.59;96365.48;106632;1276;25513;-77
2024/02/16 07:16:36;;;;;;;14.20;7.10;;;;;;;-1.27;77.30;96363.02;106669;1276;22526;-77
2024/02/16 07:19:05;;;;;;;14.40;7.30;;;;;;;-1.18;77.41;96365.09;106716;1276;23932;-77
2024/02/16 07:21:33;;;;;;;10.20;6.20;;;;;;;-1.07;77.05;96364.46;106629;1276;22541;-77
2024/02/16 07:24:02;;;;;;;17.90;8.70;;;;;;;-1.01;76.68;96364.88;106617;1276;25396;-77
2024/02/16 07:26:31;;;;;;;14.60;7.80;;;;;;;-0.92;76.75;96366.09;106856;1276;24445;-76
2024/02/16 07:28:59;;;;;;;18.10;8.70;;;;;;;-0.80;76.52;96360.29;106694;1276;25981;-77
2024/02/16 07:31:35;;;;;;;19.30;9.70;;;;;;;-0.74;76.02;96361.39;106700;1276;22651;-76
2024/02/16 07:34:03;;;;;;;18.50;9.80;;;;;;;-0.65;75.55;96359.66;106704;1276;24478;-77
2024/02/16 07:36:34;;;;;;;23.00;11.30;;;;;;;-0.54;75.57;96355.73;106661;1276;22565;-76
2024/02/16 07:39:04;;;;;;;21.20;12.10;;;;;;;-0.38;75.36;96356.98;106672;1276;22995;-77
2024/02/16 07:41:33;;;;;;;23.30;12.00;;;;;;;-0.24;75.08;96354.06;106709;1275;24047;-77
2024/02/16 07:44:02;;;;;;;22.90;12.00;;;;;;;-0.11;74.07;96352.23;106704;1275;22621;-79
2024/02/16 07:46:30;;;;;;;18.50;10.50;;;;;;;0.02;74.22;96348.89;106674;1276;22520;-77
2024/02/16 07:49:04;;;;;;;20.20;10.60;;;;;;;0.11;74.54;96348.33;106843;1272;24399;-75
2024/02/16 07:51:33;;;;;;;19.40;11.00;;;;;;;0.20;74.50;96348.79;106719;1276;24472;-78
2024/02/16 07:54:01;;;;;;;17.10;9.20;;;;;;;0.30;74.41;96345.65;106741;1276;25301;-76
2024/02/16 07:56:30;;;;;;;18.00;10.00;;;;;;;0.45;74.18;96345.64;106989;1276;22531;-76
2024/02/16 07:58:58;;;;;;;19.10;11.00;;;;;;;0.63;73.98;96339.64;106836;1276;22526;-76
2024/02/16 08:01:27;;;;;;;16.80;9.20;;;;;;;0.75;72.97;96340.16;106674;1254;25618;-75
2024/02/16 08:03:56;;;;;;;17.70;9.40;;;;;;;0.91;72.08;96346.89;106603;1276;22523;-76
2024/02/16 08:06:27;;;;;;;21.60;11.90;;;;;;;1.03;72.13;96341.20;106647;1276;25504;-77
2024/02/16 08:08:56;;;;;;;29.30;13.80;;;;;;;1.15;72.55;96343.64;106676;1276;24702;-76
2024/02/16 08:11:25;;;;;;;33.40;15.80;;;;;;;1.30;72.53;96341.48;106726;1276;24243;-77
2024/02/16 08:13:55;;;;;;;63.10;27.10;;;;;;;1.50;71.77;96338.59;106831;1276;22534;-77
2024/02/16 08:16:24;;;;;;;31.80;10.40;;;;;;;1.75;71.56;96339.61;106676;1276;24488;-76
2024/02/16 08:18:52;;;;;;;13.60;5.80;;;;;;;1.98;69.74;96334.85;106705;1276;25279;-76
2024/02/16 08:21:21;;;;;;;24.20;10.00;;;;;;;2.20;70.24;96335.42;106874;1276;22603;-77
2024/02/16 08:23:49;;;;;;;22.00;10.00;;;;;;;2.43;70.75;96331.67;106725;1276;24395;-75
2024/02/16 08:26:18;;;;;;;9.30;3.90;;;;;;;2.69;69.99;96328.83;106725;1276;23893;-74
2024/02/16 08:28:46;;;;;;;13.50;4.30;;;;;;;2.95;67.20;96328.73;106841;1276;22533;-76
2024/02/16 08:31:17;;;;;;;6.90;3.20;;;;;;;3.15;65.81;96327.78;106731;1276;24404;-76
2024/02/16 08:33:46;;;;;;;26.10;16.80;;;;;;;3.35;64.76;96329.95;106959;1276;22516;-76
2024/02/16 08:36:15;;;;;;;40.20;32.40;;;;;;;3.57;65.90;96325.52;106875;1263;22530;-76
2024/02/16 08:38:44;;;;;;;35.40;27.10;;;;;;;3.80;64.14;96320.75;106705;1260;24286;-76
2024/02/16 08:41:12;;;;;;;15.00;12.50;;;;;;;4.02;63.04;96319.60;106672;1276;22533;-76
2024/02/16 08:43:41;;;;;;;12.10;9.50;;;;;;;4.22;62.49;96313.67;106667;1276;22533;-76
2024/02/16 08:46:10;;;;;;;6.30;3.60;;;;;;;4.41;63.51;96314.38;106649;1276;23166;-75
2024/02/16 08:48:38;;;;;;;4.70;3.40;;;;;;;4.58;62.48;96313.24;106685;1276;26124;-76
2024/02/16 08:51:07;;;;;;;7.60;2.90;;;;;;;4.72;61.87;96306.69;106861;1276;25503;-77
2024/02/16 08:53:36;;;;;;;8.70;3.10;;;;;;;4.88;61.90;96307.80;106666;1276;25425;-76
2024/02/16 08:56:11;;;;;;;4.70;1.90;;;;;;;5.06;61.38;96307.87;106831;1276;22598;-79
2024/02/16 08:58:39;;;;;;;3.30;1.80;;;;;;;5.19;59.57;96303.52;107074;1276;22641;-78
2024/02/16 09:01:08;;;;;;;3.70;1.60;;;;;;;5.31;59.59;96303.88;106766;1276;22475;-77
2024/02/16 09:03:39;;;;;;;5.30;2.90;;;;;;;5.43;57.37;96303.67;106909;1276;24324;-78
2024/02/16 09:06:07;;;;;;;4.70;2.00;;;;;;;5.57;57.40;96303.14;106976;1272;25422;-78
2024/02/16 09:08:36;;;;;;;6.40;1.80;;;;;;;5.69;55.10;96302.94;106834;1276;22525;-77
2024/02/16 09:11:05;;;;;;;4.70;2.00;;;;;;;5.81;56.68;96304.13;106816;1276;25501;-78
2024/02/16 09:13:35;;;;;;;4.10;2.20;;;;;;;5.95;55.88;96302.20;106837;1276;22523;-77
2024/02/16 09:16:08;;;;;;;3.30;1.90;;;;;;;6.11;52.79;96296.44;106687;1276;22582;-80
2024/02/16 09:18:37;;;;;;;2.90;1.70;;;;;;;6.24;50.11;96293.43;106744;1276;22534;-77
2024/02/16 09:21:07;;;;;;;3.00;1.80;;;;;;;6.36;49.75;96292.66;107021;1272;25257;-77
2024/02/16 09:23:36;;;;;;;3.20;1.80;;;;;;;6.47;47.99;96292.92;106929;1276;22641;-77
2024/02/16 09:26:05;;;;;;;7.00;3.80;;;;;;;6.55;46.83;96288.79;107101;1276;22688;-78
2024/02/16 09:28:33;;;;;;;4.60;3.20;;;;;;;6.66;47.33;96290.80;106839;1276;22546;-77
2024/02/16 09:31:02;;;;;;;7.90;2.60;;;;;;;6.81;48.19;96288.48;106756;1276;24222;-77
2024/02/16 09:33:30;;;;;;;41.80;17.30;;;;;;;6.94;46.82;96292.41;106849;1276;22533;-76
2024/02/16 09:35:59;;;;;;;68.00;24.90;;;;;;;7.10;48.44;96295.31;106811;1276;25250;-76
2024/02/16 09:38:27;;;;;;;14.30;6.00;;;;;;;7.23;46.03;96295.03;106738;1276;24366;-76
2024/02/16 09:40:56;;;;;;;8.70;3.40;;;;;;;7.35;46.01;96293.35;106739;1275;24218;-77
2024/02/16 09:43:26;;;;;;;32.00;10.40;;;;;;;7.50;45.30;96294.99;106804;1276;23734;-76
2024/02/16 09:46:01;;;;;;;37.70;23.30;;;;;;;7.66;46.48;96289.11;106836;1275;25379;-76
2024/02/16 09:48:31;;;;;;;6.30;3.90;;;;;;;7.83;45.65;96289.17;106725;1276;22529;-76
2024/02/16 09:51:03;;;;;;;2.20;1.50;;;;;;;7.92;42.28;96285.17;106874;1276;25437;-76
2024/02/16 09:53:31;;;;;;;13.00;5.10;;;;;;;8.03;44.44;96282.23;106903;1276;25460;-74
2024/02/16 09:56:01;;;;;;;7.00;2.90;;;;;;;8.19;45.66;96280.16;106835;1276;22544;-78
2024/02/16 09:58:29;;;;;;;9.90;5.30;;;;;;;8.33;44.95;96282.27;106868;1276;23917;-78
2024/02/16 10:00:58;;;;;;;3.70;2.10;;;;;;;8.45;43.63;96278.98;107018;1276;22649;-76
2024/02/16 10:03:34;;;;;;;25.30;14.00;;;;;;;8.56;43.79;96278.29;107073;1276;24079;-74
2024/02/16 10:06:08;;;;;;;8.20;4.60;;;;;;;8.73;45.00;96277.24;107049;1276;22526;-76
2024/02/16 10:08:51;;;;;;;5.00;3.30;;;;;;;8.89;44.64;96277.94;106844;1276;25533;-75
2024/02/16 10:11:24;;;;;;;4.40;2.60;;;;;;;8.96;44.08;96277.58;106651;1276;22557;-77
2024/02/16 10:14:02;;;;;;;18.20;9.50;;;;;;;9.05;43.08;96277.90;106194;1276;641822;-75
2024/02/16 10:16:31;;;;;;;24.50;12.10;;;;;;;9.19;43.13;96273.49;106677;1259;25345;-74
2024/02/16 10:19:07;;;;;;;62.90;30.00;;;;;;;9.29;43.73;96272.23;106796;1276;25743;-76
2024/02/16 10:21:36;;;;;;;14.20;6.70;;;;;;;9.48;43.98;96275.16;106929;1266;24043;-75
2024/02/16 10:24:10;;;;;;;5.60;3.50;;;;;;;9.59;42.36;96274.07;106772;1276;24251;-76
2024/02/16 10:26:38;;;;;;;5.70;4.40;;;;;;;9.67;42.49;96269.64;106853;1264;24063;-76
2024/02/16 10:29:11;;;;;;;4.50;2.80;;;;;;;9.77;40.90;96265.73;107000;1276;22606;-76
2024/02/16 10:31:39;;;;;;;9.50;2.80;;;;;;;9.80;39.46;96263.08;106744;1276;22538;-76
2024/02/16 10:34:09;;;;;;;10.10;4.70;;;;;;;9.90;40.34;96257.41;106639;1276;22513;-75
2024/02/16 10:36:39;;;;;;;5.50;2.90;;;;;;;10.26;41.42;96251.58;106691;1276;22538;-75
2024/02/16 10:39:10;;;;;;;8.30;5.30;;;;;;;10.75;40.05;96251.23;107004;1276;25504;-76
2024/02/16 10:41:41;;;;;;;8.00;6.10;;;;;;;11.24;39.17;96249.69;106726;1276;24407;-75
2024/02/16 10:44:10;;;;;;;18.20;4.30;;;;;;;11.71;38.69;96242.09;106629;1276;22509;-76
2024/02/16 10:46:40;;;;;;;12.60;4.50;;;;;;;12.08;35.59;96233.52;106669;1276;25290;-76
2024/02/16 10:49:09;;;;;;;11.10;6.30;;;;;;;12.46;36.07;96231.73;106735;1276;22531;-77
2024/02/16 10:51:43;;;;;;;11.10;6.60;;;;;;;12.95;36.67;96230.37;106640;1276;25338;-76
2024/02/16 10:54:15;;;;;;;5.60;3.30;;;;;;;13.47;37.60;96224.48;106669;1276;23756;-76
2024/02/16 10:56:45;;;;;;;13.80;6.10;;;;;;;13.81;32.79;96218.65;106662;1276;24268;-75
2024/02/16 10:59:13;;;;;;;9.20;5.20;;;;;;;14.09;34.50;96210.98;106613;1276;22534;-76
2024/02/16 11:01:43;;;;;;;13.60;7.70;;;;;;;14.42;33.71;96209.52;106679;1276;22524;-76
2024/02/16 11:04:15;;;;;;;8.00;4.20;;;;;;;14.84;32.72;96209.39;106676;1276;22531;-76
2024/02/16 11:06:59;;;;;;;6.70;3.50;;;;;;;15.35;33.11;96202.55;106629;1276;22530;-76
2024/02/16 11:09:35;;;;;;;11.20;4.30;;;;;;;15.71;30.46;96199.27;106757;1276;22521;-76
2024/02/16 11:12:08;;;;;;;6.40;2.80;;;;;;;15.86;30.79;96191.89;106880;1276;22534;-76
2024/02/16 11:14:41;;;;;;;21.00;18.10;;;;;;;16.14;30.87;96192.46;106663;1276;24343;-76
2024/02/16 11:17:10;;;;;;;11.10;3.00;;;;;;;16.46;28.62;96188.42;106657;1276;22527;-76
2024/02/16 11:19:46;;;;;;;7.40;3.10;;;;;;;16.67;27.65;96187.05;106595;1276;22642;-76
2024/02/16 11:22:19;;;;;;;10.60;5.30;;;;;;;16.86;27.85;96191.07;106621;1276;24199;-77
2024/02/16 11:24:50;;;;;;;9.40;5.20;;;;;;;17.01;26.81;96188.25;106724;1269;22612;-77
2024/02/16 11:27:19;;;;;;;19.00;3.30;;;;;;;17.33;27.77;96185.38;106681;1276;24222;-76
2024/02/16 11:29:49;;;;;;;5.20;4.50;;;;;;;17.65;28.20;96188.45;106650;1276;22537;-77
2024/02/16 11:32:21;;;;;;;8.10;3.50;;;;;;;17.59;25.81;96186.37;106765;1276;22529;-77
2024/02/16 11:34:49;;;;;;;5.20;2.70;;;;;;;17.67;25.35;96187.48;106633;1276;25303;-76
2024/02/16 11:37:19;;;;;;;8.00;4.40;;;;;;;17.69;25.28;96181.40;106967;1276;25358;-77